createdAt,value
2022-09-28T12:23:06.778Z,941.54
2022-09-28T12:25:33.096Z,941.64
2022-09-28T12:27:59.433Z,941.66
2022-09-28T12:30:25.754Z,941.65
2022-09-28T12:32:52.079Z,941.64
2022-09-28T12:35:18.426Z,941.66
2022-09-28T12:37:44.763Z,941.69
2022-09-28T12:40:11.133Z,941.69
2022-09-28T12:42:38.491Z,941.68
2022-09-28T12:45:04.828Z,941.69
2022-09-28T12:47:31.196Z,941.58
2022-09-28T12:50:37.134Z,941.60
2022-09-28T12:52:23.875Z,941.64
2022-09-28T12:54:50.253Z,941.61
2022-09-28T12:57:16.586Z,941.65
2022-09-28T12:59:42.927Z,941.60
2022-09-28T13:02:09.288Z,941.64
2022-09-28T13:04:35.586Z,941.61
2022-09-28T13:07:01.906Z,941.73
2022-09-28T13:09:28.282Z,941.72
2022-09-28T13:11:54.603Z,941.68
2022-09-28T13:14:20.946Z,941.68
2022-09-28T13:16:47.282Z,941.70
2022-09-28T13:19:13.687Z,941.61
2022-09-28T13:21:39.941Z,941.59
2022-09-28T13:24:27.837Z,941.55
2022-09-28T13:26:32.610Z,941.56
2022-09-28T13:28:58.970Z,941.60
2022-09-28T13:31:26.769Z,941.59
2022-09-28T13:33:51.629Z,941.59
2022-09-28T13:36:17.952Z,941.76
2022-09-28T13:38:44.276Z,941.65
2022-09-28T13:41:10.670Z,941.70
2022-09-28T13:43:37.012Z,941.68
2022-09-28T13:46:03.359Z,941.66
2022-09-28T13:48:29.650Z,941.60
2022-09-28T13:50:55.969Z,941.58
2022-09-28T13:53:22.358Z,941.60
2022-09-28T13:55:48.671Z,941.62
2022-09-28T13:58:15.024Z,941.53
2022-09-28T14:00:41.376Z,941.59
2022-09-28T14:03:07.780Z,941.65
2022-09-28T14:05:34.035Z,941.58
2022-09-28T14:08:00.395Z,941.59
2022-09-28T14:10:26.731Z,941.54
2022-09-28T14:12:53.053Z,941.63
2022-09-28T14:15:19.397Z,941.56
2022-09-28T14:17:45.718Z,941.45
2022-09-28T14:20:12.046Z,941.44
2022-09-28T14:22:38.409Z,941.38
2022-09-28T14:25:04.722Z,941.31
2022-09-28T14:27:31.097Z,941.33
2022-09-28T14:29:57.426Z,941.44
2022-09-28T14:32:23.738Z,941.38
2022-09-28T14:34:50.061Z,941.43
2022-09-28T14:37:16.407Z,941.41
2022-09-28T14:39:42.748Z,941.36
2022-09-28T14:42:09.071Z,941.49
2022-09-28T14:44:35.443Z,941.42
2022-09-28T14:47:01.793Z,941.37
2022-09-28T14:49:28.139Z,941.43
2022-09-28T14:51:54.472Z,941.44
2022-09-28T14:54:20.821Z,941.40
2022-09-28T14:56:47.144Z,941.47
2022-09-28T14:59:13.485Z,941.46
2022-09-28T15:01:39.815Z,941.43
2022-09-28T15:04:06.150Z,941.57
2022-09-28T15:06:32.488Z,941.50
2022-09-28T15:08:58.807Z,941.50
2022-09-28T15:11:25.170Z,941.43
2022-09-28T15:13:51.549Z,941.42
2022-09-28T15:16:17.981Z,941.54
2022-09-28T15:18:44.205Z,941.53
2022-09-28T15:21:10.570Z,941.62
2022-09-28T15:23:36.904Z,941.58
2022-09-28T15:26:03.213Z,941.63
2022-09-28T15:28:29.570Z,941.63
2022-09-28T15:30:55.922Z,941.64
2022-09-28T15:33:22.214Z,941.67
2022-09-28T15:35:48.548Z,941.64
2022-09-28T15:38:14.877Z,941.66
2022-09-28T15:40:41.307Z,941.69
2022-09-28T15:43:07.552Z,941.60
2022-09-28T15:45:33.897Z,941.71
2022-09-28T15:48:00.211Z,941.71
2022-09-28T15:50:26.570Z,941.71
2022-09-28T15:52:52.885Z,941.75
2022-09-28T15:55:19.210Z,941.73
2022-09-28T15:57:45.535Z,941.73
2022-09-28T16:00:11.896Z,941.76
2022-09-28T16:02:38.252Z,941.80
2022-09-28T16:05:04.535Z,941.71
2022-09-28T16:07:30.861Z,941.75
2022-09-28T16:09:57.203Z,941.79
2022-09-28T16:12:23.528Z,941.76
2022-09-28T16:14:49.853Z,941.72
2022-09-28T16:17:16.172Z,941.70
2022-09-28T16:19:42.496Z,941.70
2022-09-28T16:22:08.841Z,941.75
2022-09-28T16:24:35.184Z,941.70
2022-09-28T16:27:01.499Z,941.71
2022-09-28T16:29:27.826Z,941.80
2022-09-28T16:31:54.149Z,941.80
2022-09-28T16:34:20.495Z,941.77
2022-09-28T16:36:46.810Z,941.77
2022-09-28T16:39:13.164Z,941.88
2022-09-28T16:41:39.482Z,941.89
2022-09-28T16:44:05.826Z,941.86
2022-09-28T16:46:32.217Z,941.89
2022-09-28T16:48:58.527Z,941.93
2022-09-28T16:51:24.868Z,941.95
2022-09-28T16:53:51.203Z,941.99
2022-09-28T16:56:17.520Z,941.94
2022-09-28T16:58:43.863Z,941.94
2022-09-28T17:01:10.277Z,941.98
2022-09-28T17:03:36.653Z,941.97
2022-09-28T17:06:02.895Z,941.96
2022-09-28T17:08:29.258Z,941.96
2022-09-28T17:11:13.907Z,941.97
2022-09-28T17:13:21.905Z,941.94
2022-09-28T17:15:48.275Z,941.94
2022-09-28T17:18:14.587Z,941.95
2022-09-28T17:20:40.912Z,941.88
2022-09-28T17:23:07.258Z,942.03
2022-09-28T17:25:33.605Z,941.89
2022-09-28T17:27:59.984Z,941.98
2022-09-28T17:30:26.299Z,941.98
2022-09-28T17:32:52.674Z,942.00
2022-09-28T17:35:26.072Z,942.05
2022-09-28T17:37:45.354Z,942.04
2022-09-28T17:40:11.695Z,942.02
2022-09-28T17:42:38.017Z,942.01
2022-09-28T17:45:04.357Z,942.02
2022-09-28T17:47:34.156Z,942.00
2022-09-28T17:49:57.050Z,942.11
2022-09-28T17:52:23.379Z,942.06
2022-09-28T17:54:49.693Z,942.09
2022-09-28T17:57:16.021Z,942.15
2022-09-28T17:59:42.359Z,942.23
2022-09-28T18:02:08.747Z,942.20
2022-09-28T18:04:51.186Z,942.17
2022-09-28T18:07:01.382Z,942.21
2022-09-28T18:09:27.720Z,942.30
2022-09-28T18:11:54.037Z,942.36
2022-09-28T18:14:20.389Z,942.40
2022-09-28T18:16:46.729Z,942.28
2022-09-28T18:19:13.128Z,942.33
2022-09-28T18:21:39.435Z,942.39
2022-09-28T18:24:05.792Z,942.48
2022-09-28T18:26:32.114Z,942.54
2022-09-28T18:28:58.454Z,942.51
2022-09-28T18:31:24.812Z,942.53
2022-09-28T18:33:51.104Z,942.59
2022-09-28T18:36:17.467Z,942.65
2022-09-28T18:38:43.838Z,942.65
2022-09-28T18:41:10.163Z,942.63
2022-09-28T18:43:36.628Z,942.68
2022-09-28T18:46:02.885Z,942.66
2022-09-28T18:48:29.162Z,942.62
2022-09-28T18:50:55.534Z,942.69
2022-09-28T18:53:21.848Z,942.75
2022-09-28T18:55:48.207Z,942.68
2022-09-28T18:58:14.553Z,942.69
2022-09-28T19:00:40.925Z,942.73
2022-09-28T19:03:07.436Z,942.72
2022-09-28T19:05:33.591Z,942.90
2022-09-28T19:07:59.907Z,942.86
2022-09-28T19:10:26.252Z,942.84
2022-09-28T19:12:52.610Z,942.85
2022-09-28T19:15:18.951Z,942.89
2022-09-28T19:17:45.265Z,942.89
2022-09-28T19:20:11.621Z,942.86
2022-09-28T19:22:37.956Z,942.92
2022-09-28T19:25:04.294Z,942.87
2022-09-28T19:27:30.642Z,942.79
2022-09-28T19:29:56.963Z,942.89
2022-09-28T19:32:23.303Z,942.85
2022-09-28T19:34:49.623Z,942.84
2022-09-28T19:37:15.970Z,942.92
2022-09-28T19:39:42.310Z,942.85
2022-09-28T19:42:11.104Z,942.89
2022-09-28T19:44:37.453Z,943.00
2022-09-28T19:47:03.803Z,942.97
2022-09-28T19:49:30.125Z,942.99
2022-09-28T19:52:13.932Z,943.00
2022-09-28T19:54:22.823Z,943.03
2022-09-28T19:56:58.971Z,942.93
2022-09-28T19:59:25.331Z,942.94
2022-09-28T20:01:51.707Z,942.92
2022-09-28T20:04:17.998Z,942.97
2022-09-28T20:06:44.314Z,942.98
2022-09-28T20:09:10.641Z,942.97
2022-09-28T20:11:36.982Z,943.01
2022-09-28T20:14:03.376Z,942.97
2022-09-28T20:16:29.689Z,943.01
2022-09-28T20:18:56.033Z,943.02
2022-09-28T20:21:25.698Z,943.01
2022-09-28T20:23:48.710Z,943.05
2022-09-28T20:26:15.041Z,943.02
2022-09-28T20:28:41.367Z,943.04
2022-09-28T20:31:07.729Z,943.00
2022-09-28T20:33:34.027Z,943.07
2022-09-28T20:36:00.343Z,943.13
2022-09-28T20:38:26.666Z,943.10
2022-09-28T20:40:53.108Z,943.07
2022-09-28T20:43:19.320Z,943.11
2022-09-28T20:45:45.659Z,943.07
2022-09-28T20:48:12.033Z,943.10
2022-09-28T20:50:38.371Z,943.24
2022-09-28T20:53:04.689Z,943.28
2022-09-28T20:55:31.011Z,943.37
2022-09-28T20:57:57.358Z,943.32
2022-09-28T21:00:23.707Z,943.27
2022-09-28T21:02:50.072Z,943.32
2022-09-28T21:05:16.436Z,943.37
2022-09-28T21:07:42.753Z,943.26
2022-09-28T21:10:09.072Z,943.26
2022-09-28T21:12:35.434Z,943.33
2022-09-28T21:15:05.781Z,943.37
2022-09-28T21:17:28.089Z,943.34
2022-09-28T21:19:54.459Z,943.34
2022-09-28T21:22:20.799Z,943.41
2022-09-28T21:24:47.135Z,943.56
2022-09-28T21:27:13.476Z,943.52
2022-09-28T21:29:39.809Z,943.68
2022-09-28T21:32:06.130Z,943.66
2022-09-28T21:34:32.461Z,943.58
2022-09-28T21:36:58.788Z,943.51
2022-09-28T21:39:25.152Z,943.52
2022-09-28T21:41:51.494Z,943.52
2022-09-28T21:44:17.895Z,943.52
2022-09-28T21:46:44.201Z,943.54
2022-09-28T21:49:10.504Z,943.53
2022-09-28T21:51:36.843Z,943.51
2022-09-28T21:54:03.182Z,943.38
2022-09-28T21:56:29.525Z,943.32
2022-09-28T21:58:55.882Z,943.40
2022-09-28T22:01:22.308Z,943.44
2022-09-28T22:03:48.570Z,943.39
2022-09-28T22:06:14.906Z,943.43
2022-09-28T22:08:41.222Z,943.42
2022-09-28T22:11:07.549Z,943.34
2022-09-28T22:13:33.884Z,943.37
2022-09-28T22:16:00.225Z,943.26
2022-09-28T22:18:26.527Z,943.31
2022-09-28T22:20:52.869Z,943.31
2022-09-28T22:23:19.203Z,943.33
2022-09-28T22:25:45.554Z,943.31
2022-09-28T22:28:11.860Z,943.25
2022-09-28T22:30:38.246Z,943.30
2022-09-28T22:33:04.584Z,943.37
2022-09-28T22:35:30.900Z,943.33
2022-09-28T22:37:57.251Z,943.24
2022-09-28T22:40:23.582Z,943.29
2022-09-28T22:42:49.887Z,943.37
2022-09-28T22:45:16.239Z,943.39
2022-09-28T22:47:42.575Z,943.35
2022-09-28T22:50:08.916Z,943.24
2022-09-28T22:52:35.265Z,943.18
2022-09-28T22:55:01.610Z,943.45
2022-09-28T22:57:27.925Z,943.36
2022-09-28T22:59:54.269Z,943.35
2022-09-28T23:02:20.646Z,943.53
2022-09-28T23:04:47.007Z,943.31
2022-09-28T23:07:13.349Z,943.34
2022-09-28T23:09:39.677Z,943.40
2022-09-28T23:12:06.042Z,943.33
2022-09-28T23:14:32.400Z,943.34
2022-09-28T23:16:58.715Z,943.29
2022-09-28T23:19:25.107Z,943.29
2022-09-28T23:21:51.448Z,943.34
2022-09-28T23:24:17.786Z,943.35
2022-09-28T23:26:44.125Z,943.35
2022-09-28T23:29:10.502Z,943.27
2022-09-28T23:31:36.884Z,943.32
2022-09-28T23:34:03.167Z,943.32
2022-09-28T23:36:29.508Z,943.21
2022-09-28T23:38:55.865Z,943.18
2022-09-28T23:41:22.178Z,943.12
2022-09-28T23:43:48.523Z,943.18
2022-09-28T23:46:20.269Z,943.26
2022-09-28T23:48:41.187Z,943.10
2022-09-28T23:51:07.527Z,943.29
2022-09-28T23:53:33.867Z,943.22
2022-09-28T23:56:00.183Z,943.18
2022-09-28T23:58:26.506Z,943.19
